sensor_id;sensor_type;location;lat;lon;timestamp;P1;durP1;ratioP1;P2;durP2;ratioP2
71759;SDS011;59919;48.112;16.280;2023-04-08T00:02:06;5.88;;;4.93;;
71759;SDS011;59919;48.112;16.280;2023-04-08T00:04:40;6.68;;;5.07;;
71759;SDS011;59919;48.112;16.280;2023-04-08T00:07:14;6.72;;;5.72;;
71759;SDS011;59919;48.112;16.280;2023-04-08T00:09:45;6.30;;;5.40;;
71759;SDS011;59919;48.112;16.280;2023-04-08T00:12:19;6.38;;;5.72;;
71759;SDS011;59919;48.112;16.280;2023-04-08T00:15:00;6.90;;;5.45;;
71759;SDS011;59919;48.112;16.280;2023-04-08T00:17:35;6.45;;;5.70;;
71759;SDS011;59919;48.112;16.280;2023-04-08T00:20:06;5.93;;;5.32;;
71759;SDS011;59919;48.112;16.280;2023-04-08T00:22:38;6.35;;;5.60;;
71759;SDS011;59919;48.112;16.280;2023-04-08T00:25:09;6.43;;;5.68;;
71759;SDS011;59919;48.112;16.280;2023-04-08T00:27:40;8.32;;;5.70;;
71759;SDS011;59919;48.112;16.280;2023-04-08T00:30:13;6.82;;;5.85;;
71759;SDS011;59919;48.112;16.280;2023-04-08T00:32:48;7.07;;;5.72;;
71759;SDS011;59919;48.112;16.280;2023-04-08T00:35:19;8.35;;;6.03;;
71759;SDS011;59919;48.112;16.280;2023-04-08T00:37:51;6.82;;;6.00;;
71759;SDS011;59919;48.112;16.280;2023-04-08T00:40:27;7.28;;;6.18;;
71759;SDS011;59919;48.112;16.280;2023-04-08T00:42:58;6.85;;;5.70;;
71759;SDS011;59919;48.112;16.280;2023-04-08T00:45:32;6.93;;;6.00;;
71759;SDS011;59919;48.112;16.280;2023-04-08T00:48:03;7.07;;;6.10;;
71759;SDS011;59919;48.112;16.280;2023-04-08T00:50:41;7.25;;;6.22;;
71759;SDS011;59919;48.112;16.280;2023-04-08T00:53:19;7.23;;;6.33;;
71759;SDS011;59919;48.112;16.280;2023-04-08T00:55:50;7.68;;;6.18;;
71759;SDS011;59919;48.112;16.280;2023-04-08T00:58:24;6.88;;;6.18;;
71759;SDS011;59919;48.112;16.280;2023-04-08T01:01:04;7.03;;;5.55;;
71759;SDS011;59919;48.112;16.280;2023-04-08T01:03:42;6.07;;;5.45;;
71759;SDS011;59919;48.112;16.280;2023-04-08T01:06:34;6.47;;;5.38;;
71759;SDS011;59919;48.112;16.280;2023-04-08T01:09:18;7.03;;;5.55;;
71759;SDS011;59919;48.112;16.280;2023-04-08T01:11:57;6.53;;;5.43;;
71759;SDS011;59919;48.112;16.280;2023-04-08T01:14:38;6.05;;;5.45;;
71759;SDS011;59919;48.112;16.280;2023-04-08T01:17:13;6.30;;;5.47;;
71759;SDS011;59919;48.112;16.280;2023-04-08T01:19:46;6.55;;;5.18;;
71759;SDS011;59919;48.112;16.280;2023-04-08T01:25:16;7.50;;;5.63;;
71759;SDS011;59919;48.112;16.280;2023-04-08T01:27:50;5.97;;;5.35;;
71759;SDS011;59919;48.112;16.280;2023-04-08T01:30:25;7.00;;;5.50;;
71759;SDS011;59919;48.112;16.280;2023-04-08T01:33:00;6.00;;;5.40;;
71759;SDS011;59919;48.112;16.280;2023-04-08T01:35:33;6.68;;;5.00;;
71759;SDS011;59919;48.112;16.280;2023-04-08T01:38:06;7.28;;;5.30;;
71759;SDS011;59919;48.112;16.280;2023-04-08T01:40:39;6.15;;;4.75;;
71759;SDS011;59919;48.112;16.280;2023-04-08T01:43:16;5.40;;;4.72;;
71759;SDS011;59919;48.112;16.280;2023-04-08T01:45:48;5.18;;;4.68;;
71759;SDS011;59919;48.112;16.280;2023-04-08T01:48:23;6.85;;;4.85;;
71759;SDS011;59919;48.112;16.280;2023-04-08T01:50:58;5.68;;;4.82;;
71759;SDS011;59919;48.112;16.280;2023-04-08T01:53:33;6.05;;;4.68;;
71759;SDS011;59919;48.112;16.280;2023-04-08T01:56:08;5.13;;;4.47;;
71759;SDS011;59919;48.112;16.280;2023-04-08T01:58:45;5.65;;;4.60;;
71759;SDS011;59919;48.112;16.280;2023-04-08T02:01:21;5.70;;;4.18;;
71759;SDS011;59919;48.112;16.280;2023-04-08T02:03:56;5.43;;;4.53;;
71759;SDS011;59919;48.112;16.280;2023-04-08T02:06:28;5.50;;;4.35;;
71759;SDS011;59919;48.112;16.280;2023-04-08T02:09:02;5.43;;;4.35;;
71759;SDS011;59919;48.112;16.280;2023-04-08T02:11:38;4.60;;;4.10;;
71759;SDS011;59919;48.112;16.280;2023-04-08T02:14:09;4.55;;;3.97;;
71759;SDS011;59919;48.112;16.280;2023-04-08T02:16:51;5.13;;;4.63;;
71759;SDS011;59919;48.112;16.280;2023-04-08T02:19:31;5.90;;;4.20;;
71759;SDS011;59919;48.112;16.280;2023-04-08T02:25:16;5.57;;;4.32;;
71759;SDS011;59919;48.112;16.280;2023-04-08T02:27:56;5.28;;;4.40;;
71759;SDS011;59919;48.112;16.280;2023-04-08T02:30:32;4.78;;;4.28;;
71759;SDS011;59919;48.112;16.280;2023-04-08T02:33:06;5.10;;;3.85;;
71759;SDS011;59919;48.112;16.280;2023-04-08T02:35:40;3.90;;;3.50;;
71759;SDS011;59919;48.112;16.280;2023-04-08T02:38:14;4.78;;;3.85;;
71759;SDS011;59919;48.112;16.280;2023-04-08T02:40:47;4.40;;;3.50;;
71759;SDS011;59919;48.112;16.280;2023-04-08T02:43:22;5.60;;;3.93;;
71759;SDS011;59919;48.112;16.280;2023-04-08T02:46:01;4.82;;;3.90;;
71759;SDS011;59919;48.112;16.280;2023-04-08T02:48:35;4.55;;;3.63;;
71759;SDS011;59919;48.112;16.280;2023-04-08T02:51:06;4.38;;;3.78;;
71759;SDS011;59919;48.112;16.280;2023-04-08T02:53:39;3.92;;;3.50;;
71759;SDS011;59919;48.112;16.280;2023-04-08T02:56:11;3.28;;;2.97;;
71759;SDS011;59919;48.112;16.280;2023-04-08T02:58:49;4.07;;;3.30;;
71759;SDS011;59919;48.112;16.280;2023-04-08T03:01:22;4.38;;;3.45;;
71759;SDS011;59919;48.112;16.280;2023-04-08T03:03:56;3.78;;;3.33;;
71759;SDS011;59919;48.112;16.280;2023-04-08T03:06:29;5.03;;;3.30;;
71759;SDS011;59919;48.112;16.280;2023-04-08T03:09:02;4.05;;;3.40;;
71759;SDS011;59919;48.112;16.280;2023-04-08T03:11:37;4.47;;;3.42;;
71759;SDS011;59919;48.112;16.280;2023-04-08T03:14:11;4.15;;;3.50;;
71759;SDS011;59919;48.112;16.280;2023-04-08T03:16:42;3.88;;;3.17;;
71759;SDS011;59919;48.112;16.280;2023-04-08T03:19:13;4.03;;;2.97;;
71759;SDS011;59919;48.112;16.280;2023-04-08T03:21:44;3.83;;;3.42;;
71759;SDS011;59919;48.112;16.280;2023-04-08T03:24:20;3.83;;;3.15;;
71759;SDS011;59919;48.112;16.280;2023-04-08T03:26:54;3.40;;;3.10;;
71759;SDS011;59919;48.112;16.280;2023-04-08T03:29:25;4.13;;;2.95;;
71759;SDS011;59919;48.112;16.280;2023-04-08T03:31:56;3.35;;;2.90;;
71759;SDS011;59919;48.112;16.280;2023-04-08T03:34:30;3.42;;;3.10;;
71759;SDS011;59919;48.112;16.280;2023-04-08T03:37:05;3.20;;;2.90;;
71759;SDS011;59919;48.112;16.280;2023-04-08T03:39:38;3.40;;;2.90;;
71759;SDS011;59919;48.112;16.280;2023-04-08T03:42:14;3.70;;;2.92;;
71759;SDS011;59919;48.112;16.280;2023-04-08T03:44:45;3.13;;;2.83;;
71759;SDS011;59919;48.112;16.280;2023-04-08T03:47:16;3.35;;;2.60;;
71759;SDS011;59919;48.112;16.280;2023-04-08T03:49:51;2.90;;;2.67;;
71759;SDS011;59919;48.112;16.280;2023-04-08T03:52:25;3.25;;;2.95;;
71759;SDS011;59919;48.112;16.280;2023-04-08T03:54:59;2.88;;;2.45;;
71759;SDS011;59919;48.112;16.280;2023-04-08T03:57:35;2.90;;;2.53;;
71759;SDS011;59919;48.112;16.280;2023-04-08T04:00:14;3.35;;;2.50;;
71759;SDS011;59919;48.112;16.280;2023-04-08T04:02:48;4.17;;;2.53;;
71759;SDS011;59919;48.112;16.280;2023-04-08T04:05:21;3.03;;;2.40;;
71759;SDS011;59919;48.112;16.280;2023-04-08T04:07:54;2.85;;;2.58;;
71759;SDS011;59919;48.112;16.280;2023-04-08T04:10:27;3.83;;;2.58;;
71759;SDS011;59919;48.112;16.280;2023-04-08T04:13:07;2.88;;;2.35;;
71759;SDS011;59919;48.112;16.280;2023-04-08T04:15:38;2.78;;;2.22;;
71759;SDS011;59919;48.112;16.280;2023-04-08T04:18:15;3.63;;;2.47;;
71759;SDS011;59919;48.112;16.280;2023-04-08T04:20:47;2.60;;;2.40;;
71759;SDS011;59919;48.112;16.280;2023-04-08T04:23:20;2.83;;;2.00;;
71759;SDS011;59919;48.112;16.280;2023-04-08T04:25:53;2.58;;;2.30;;
71759;SDS011;59919;48.112;16.280;2023-04-08T04:28:25;2.33;;;2.13;;
71759;SDS011;59919;48.112;16.280;2023-04-08T04:30:56;2.90;;;2.28;;
71759;SDS011;59919;48.112;16.280;2023-04-08T04:33:31;3.10;;;2.30;;
71759;SDS011;59919;48.112;16.280;2023-04-08T04:36:04;2.78;;;2.38;;
71759;SDS011;59919;48.112;16.280;2023-04-08T04:38:38;2.60;;;2.20;;
71759;SDS011;59919;48.112;16.280;2023-04-08T04:41:09;2.97;;;2.13;;
71759;SDS011;59919;48.112;16.280;2023-04-08T04:43:41;2.30;;;2.10;;
71759;SDS011;59919;48.112;16.280;2023-04-08T04:46:17;2.70;;;2.13;;
71759;SDS011;59919;48.112;16.280;2023-04-08T04:48:49;2.90;;;2.47;;
71759;SDS011;59919;48.112;16.280;2023-04-08T04:51:26;2.83;;;2.45;;
71759;SDS011;59919;48.112;16.280;2023-04-08T04:53:59;2.22;;;2.00;;
71759;SDS011;59919;48.112;16.280;2023-04-08T04:56:32;2.50;;;2.20;;
71759;SDS011;59919;48.112;16.280;2023-04-08T04:59:06;2.05;;;1.75;;
71759;SDS011;59919;48.112;16.280;2023-04-08T05:01:45;2.38;;;2.08;;
71759;SDS011;59919;48.112;16.280;2023-04-08T05:04:16;2.85;;;2.13;;
71759;SDS011;59919;48.112;16.280;2023-04-08T05:06:47;1.83;;;1.60;;
71759;SDS011;59919;48.112;16.280;2023-04-08T05:09:20;2.65;;;2.13;;
71759;SDS011;59919;48.112;16.280;2023-04-08T05:11:51;2.65;;;2.03;;
71759;SDS011;59919;48.112;16.280;2023-04-08T05:14:23;2.17;;;1.98;;
71759;SDS011;59919;48.112;16.280;2023-04-08T05:16:59;2.17;;;1.60;;
71759;SDS011;59919;48.112;16.280;2023-04-08T05:19:33;2.35;;;1.85;;
71759;SDS011;59919;48.112;16.280;2023-04-08T05:22:06;2.40;;;1.80;;
71759;SDS011;59919;48.112;16.280;2023-04-08T05:24:37;2.03;;;1.83;;
71759;SDS011;59919;48.112;16.280;2023-04-08T05:27:10;2.35;;;2.00;;
71759;SDS011;59919;48.112;16.280;2023-04-08T05:29:41;2.10;;;1.90;;
71759;SDS011;59919;48.112;16.280;2023-04-08T05:32:12;2.20;;;1.98;;
71759;SDS011;59919;48.112;16.280;2023-04-08T05:34:50;2.03;;;1.67;;
71759;SDS011;59919;48.112;16.280;2023-04-08T05:37:21;3.03;;;2.10;;
71759;SDS011;59919;48.112;16.280;2023-04-08T05:39:56;2.70;;;1.90;;
71759;SDS011;59919;48.112;16.280;2023-04-08T05:42:29;2.33;;;2.00;;
71759;SDS011;59919;48.112;16.280;2023-04-08T05:45:10;1.98;;;1.77;;
71759;SDS011;59919;48.112;16.280;2023-04-08T05:47:44;2.08;;;1.60;;
71759;SDS011;59919;48.112;16.280;2023-04-08T05:50:15;1.83;;;1.65;;
71759;SDS011;59919;48.112;16.280;2023-04-08T05:52:46;1.88;;;1.70;;
71759;SDS011;59919;48.112;16.280;2023-04-08T05:55:17;2.03;;;1.70;;
71759;SDS011;59919;48.112;16.280;2023-04-08T05:57:50;2.13;;;1.77;;
71759;SDS011;59919;48.112;16.280;2023-04-08T06:00:21;2.00;;;1.60;;
71759;SDS011;59919;48.112;16.280;2023-04-08T06:02:56;1.88;;;1.67;;
71759;SDS011;59919;48.112;16.280;2023-04-08T06:05:27;2.53;;;2.00;;
71759;SDS011;59919;48.112;16.280;2023-04-08T06:07:58;2.17;;;1.50;;
71759;SDS011;59919;48.112;16.280;2023-04-08T06:10:29;1.40;;;1.30;;
71759;SDS011;59919;48.112;16.280;2023-04-08T06:13:02;2.13;;;1.65;;
71759;SDS011;59919;48.112;16.280;2023-04-08T06:15:33;1.90;;;1.58;;
71759;SDS011;59919;48.112;16.280;2023-04-08T06:18:04;1.80;;;1.52;;
71759;SDS011;59919;48.112;16.280;2023-04-08T06:20:38;2.10;;;1.63;;
71759;SDS011;59919;48.112;16.280;2023-04-08T06:23:10;1.52;;;1.38;;
71759;SDS011;59919;48.112;16.280;2023-04-08T06:25:41;2.53;;;1.40;;
71759;SDS011;59919;48.112;16.280;2023-04-08T06:28:14;1.73;;;1.55;;
71759;SDS011;59919;48.112;16.280;2023-04-08T06:30:45;2.05;;;1.80;;
71759;SDS011;59919;48.112;16.280;2023-04-08T06:33:20;1.60;;;1.50;;
71759;SDS011;59919;48.112;16.280;2023-04-08T06:36:00;1.65;;;1.50;;
71759;SDS011;59919;48.112;16.280;2023-04-08T06:38:33;2.03;;;1.38;;
71759;SDS011;59919;48.112;16.280;2023-04-08T06:41:07;2.05;;;1.50;;
71759;SDS011;59919;48.112;16.280;2023-04-08T06:43:38;1.85;;;1.73;;
71759;SDS011;59919;48.112;16.280;2023-04-08T06:46:12;2.72;;;1.50;;
71759;SDS011;59919;48.112;16.280;2023-04-08T06:48:45;1.60;;;1.30;;
71759;SDS011;59919;48.112;16.280;2023-04-08T06:51:16;1.88;;;1.50;;
71759;SDS011;59919;48.112;16.280;2023-04-08T06:53:47;2.13;;;1.58;;
71759;SDS011;59919;48.112;16.280;2023-04-08T06:56:21;1.38;;;1.27;;
71759;SDS011;59919;48.112;16.280;2023-04-08T06:58:53;1.48;;;1.30;;
71759;SDS011;59919;48.112;16.280;2023-04-08T07:01:24;1.88;;;1.65;;
71759;SDS011;59919;48.112;16.280;2023-04-08T07:03:55;1.85;;;1.65;;
71759;SDS011;59919;48.112;16.280;2023-04-08T07:06:27;2.63;;;1.70;;
71759;SDS011;59919;48.112;16.280;2023-04-08T07:08:58;1.70;;;1.55;;
71759;SDS011;59919;48.112;16.280;2023-04-08T07:11:33;1.70;;;1.60;;
71759;SDS011;59919;48.112;16.280;2023-04-08T07:14:04;1.50;;;1.40;;
71759;SDS011;59919;48.112;16.280;2023-04-08T07:16:35;1.52;;;1.42;;
71759;SDS011;59919;48.112;16.280;2023-04-08T07:19:09;1.77;;;1.60;;
71759;SDS011;59919;48.112;16.280;2023-04-08T07:21:42;1.85;;;1.40;;
71759;SDS011;59919;48.112;16.280;2023-04-08T07:24:15;2.00;;;1.45;;
71759;SDS011;59919;48.112;16.280;2023-04-08T07:26:46;2.42;;;1.70;;
71759;SDS011;59919;48.112;16.280;2023-04-08T07:29:17;1.50;;;1.40;;
71759;SDS011;59919;48.112;16.280;2023-04-08T07:31:50;1.90;;;1.50;;
71759;SDS011;59919;48.112;16.280;2023-04-08T07:34:26;1.95;;;1.75;;
71759;SDS011;59919;48.112;16.280;2023-04-08T07:36:57;2.65;;;1.73;;
71759;SDS011;59919;48.112;16.280;2023-04-08T07:39:31;1.92;;;1.60;;
71759;SDS011;59919;48.112;16.280;2023-04-08T07:42:04;2.10;;;1.60;;
71759;SDS011;59919;48.112;16.280;2023-04-08T07:44:40;1.65;;;1.45;;
71759;SDS011;59919;48.112;16.280;2023-04-08T07:47:16;1.60;;;1.50;;
71759;SDS011;59919;48.112;16.280;2023-04-08T07:49:47;1.73;;;1.63;;
71759;SDS011;59919;48.112;16.280;2023-04-08T07:52:20;1.60;;;1.50;;
71759;SDS011;59919;48.112;16.280;2023-04-08T07:54:55;1.52;;;1.40;;
71759;SDS011;59919;48.112;16.280;2023-04-08T07:57:26;1.50;;;1.35;;
71759;SDS011;59919;48.112;16.280;2023-04-08T08:00:02;2.33;;;1.80;;
71759;SDS011;59919;48.112;16.280;2023-04-08T08:02:36;1.77;;;1.50;;
71759;SDS011;59919;48.112;16.280;2023-04-08T08:05:07;2.28;;;1.30;;
71759;SDS011;59919;48.112;16.280;2023-04-08T08:07:41;1.55;;;1.30;;
71759;SDS011;59919;48.112;16.280;2023-04-08T08:10:15;2.00;;;1.70;;
71759;SDS011;59919;48.112;16.280;2023-04-08T08:12:49;1.45;;;1.35;;
71759;SDS011;59919;48.112;16.280;2023-04-08T08:15:25;1.67;;;1.42;;
71759;SDS011;59919;48.112;16.280;2023-04-08T08:17:56;1.60;;;1.50;;
71759;SDS011;59919;48.112;16.280;2023-04-08T08:20:27;1.50;;;1.40;;
71759;SDS011;59919;48.112;16.280;2023-04-08T08:22:58;1.65;;;1.48;;
71759;SDS011;59919;48.112;16.280;2023-04-08T08:25:30;1.73;;;1.50;;
71759;SDS011;59919;48.112;16.280;2023-04-08T08:28:03;1.30;;;1.20;;
71759;SDS011;59919;48.112;16.280;2023-04-08T08:30:35;1.60;;;1.45;;
71759;SDS011;59919;48.112;16.280;2023-04-08T08:33:06;1.77;;;1.58;;
71759;SDS011;59919;48.112;16.280;2023-04-08T08:35:42;1.88;;;1.70;;
71759;SDS011;59919;48.112;16.280;2023-04-08T08:38:16;1.95;;;1.75;;
71759;SDS011;59919;48.112;16.280;2023-04-08T08:40:56;1.60;;;1.30;;
71759;SDS011;59919;48.112;16.280;2023-04-08T08:43:28;1.55;;;1.40;;
71759;SDS011;59919;48.112;16.280;2023-04-08T08:46:03;1.50;;;1.40;;
71759;SDS011;59919;48.112;16.280;2023-04-08T08:48:38;1.35;;;1.25;;
71759;SDS011;59919;48.112;16.280;2023-04-08T08:51:10;1.58;;;1.48;;
71759;SDS011;59919;48.112;16.280;2023-04-08T08:53:44;1.75;;;1.38;;
71759;SDS011;59919;48.112;16.280;2023-04-08T08:56:16;1.67;;;1.58;;
71759;SDS011;59919;48.112;16.280;2023-04-08T08:58:49;1.40;;;1.30;;
71759;SDS011;59919;48.112;16.280;2023-04-08T09:06:44;1.50;;;1.38;;
71759;SDS011;59919;48.112;16.280;2023-04-08T09:09:16;1.40;;;1.30;;
71759;SDS011;59919;48.112;16.280;2023-04-08T09:11:50;1.45;;;1.35;;
71759;SDS011;59919;48.112;16.280;2023-04-08T09:14:38;1.30;;;1.20;;
71759;SDS011;59919;48.112;16.280;2023-04-08T09:17:10;1.92;;;1.52;;
71759;SDS011;59919;48.112;16.280;2023-04-08T09:22:54;1.60;;;1.40;;
71759;SDS011;59919;48.112;16.280;2023-04-08T09:25:29;1.30;;;1.20;;
71759;SDS011;59919;48.112;16.280;2023-04-08T09:28:05;1.98;;;1.58;;
71759;SDS011;59919;48.112;16.280;2023-04-08T09:30:49;1.23;;;1.10;;
71759;SDS011;59919;48.112;16.280;2023-04-08T09:33:28;1.58;;;1.42;;
71759;SDS011;59919;48.112;16.280;2023-04-08T09:36:02;1.50;;;1.40;;
71759;SDS011;59919;48.112;16.280;2023-04-08T09:38:38;1.48;;;1.30;;
71759;SDS011;59919;48.112;16.280;2023-04-08T09:41:16;1.50;;;1.33;;
71759;SDS011;59919;48.112;16.280;2023-04-08T09:43:54;2.47;;;1.40;;
71759;SDS011;59919;48.112;16.280;2023-04-08T09:57:54;1.50;;;1.40;;
71759;SDS011;59919;48.112;16.280;2023-04-08T10:00:33;1.30;;;1.20;;
71759;SDS011;59919;48.112;16.280;2023-04-08T10:03:26;1.50;;;1.40;;
71759;SDS011;59919;48.112;16.280;2023-04-08T10:06:00;1.50;;;1.33;;
71759;SDS011;59919;48.112;16.280;2023-04-08T10:08:32;1.65;;;1.50;;
71759;SDS011;59919;48.112;16.280;2023-04-08T10:11:09;2.80;;;1.40;;
71759;SDS011;59919;48.112;16.280;2023-04-08T10:13:40;1.42;;;1.33;;
71759;SDS011;59919;48.112;16.280;2023-04-08T10:16:18;1.92;;;1.50;;
71759;SDS011;59919;48.112;16.280;2023-04-08T10:18:54;1.90;;;1.58;;
71759;SDS011;59919;48.112;16.280;2023-04-08T10:21:34;1.88;;;1.20;;
71759;SDS011;59919;48.112;16.280;2023-04-08T10:24:09;2.17;;;1.70;;
71759;SDS011;59919;48.112;16.280;2023-04-08T10:26:50;2.08;;;1.60;;
71759;SDS011;59919;48.112;16.280;2023-04-08T10:31:58;1.50;;;1.40;;
71759;SDS011;59919;48.112;16.280;2023-04-08T10:34:30;1.88;;;1.60;;
71759;SDS011;59919;48.112;16.280;2023-04-08T10:37:01;1.48;;;1.35;;
71759;SDS011;59919;48.112;16.280;2023-04-08T10:39:36;1.92;;;1.60;;
71759;SDS011;59919;48.112;16.280;2023-04-08T10:42:11;1.65;;;1.40;;
71759;SDS011;59919;48.112;16.280;2023-04-08T10:44:43;2.20;;;1.80;;
71759;SDS011;59919;48.112;16.280;2023-04-08T10:47:18;1.60;;;1.50;;
71759;SDS011;59919;48.112;16.280;2023-04-08T10:49:57;1.85;;;1.58;;
71759;SDS011;59919;48.112;16.280;2023-04-08T10:52:31;2.67;;;1.95;;
71759;SDS011;59919;48.112;16.280;2023-04-08T10:55:03;1.65;;;1.50;;
71759;SDS011;59919;48.112;16.280;2023-04-08T10:57:35;2.03;;;1.80;;
71759;SDS011;59919;48.112;16.280;2023-04-08T11:00:09;2.08;;;1.88;;
71759;SDS011;59919;48.112;16.280;2023-04-08T11:02:47;1.83;;;1.55;;
71759;SDS011;59919;48.112;16.280;2023-04-08T11:05:21;1.73;;;1.63;;
71759;SDS011;59919;48.112;16.280;2023-04-08T11:07:54;2.05;;;1.85;;
71759;SDS011;59919;48.112;16.280;2023-04-08T11:10:40;2.03;;;1.80;;
71759;SDS011;59919;48.112;16.280;2023-04-08T11:13:12;1.75;;;1.60;;
71759;SDS011;59919;48.112;16.280;2023-04-08T11:15:44;1.83;;;1.63;;
71759;SDS011;59919;48.112;16.280;2023-04-08T11:18:15;1.85;;;1.67;;
71759;SDS011;59919;48.112;16.280;2023-04-08T11:20:53;2.20;;;1.83;;
71759;SDS011;59919;48.112;16.280;2023-04-08T11:23:27;1.77;;;1.52;;
71759;SDS011;59919;48.112;16.280;2023-04-08T11:25:58;1.60;;;1.50;;
71759;SDS011;59919;48.112;16.280;2023-04-08T11:28:32;1.70;;;1.60;;
71759;SDS011;59919;48.112;16.280;2023-04-08T11:31:06;2.20;;;1.60;;
71759;SDS011;59919;48.112;16.280;2023-04-08T11:33:51;1.63;;;1.45;;
71759;SDS011;59919;48.112;16.280;2023-04-08T11:36:27;1.80;;;1.50;;
71759;SDS011;59919;48.112;16.280;2023-04-08T11:38:58;2.05;;;1.85;;
71759;SDS011;59919;48.112;16.280;2023-04-08T11:41:42;2.13;;;1.70;;
71759;SDS011;59919;48.112;16.280;2023-04-08T11:44:13;2.65;;;1.92;;
71759;SDS011;59919;48.112;16.280;2023-04-08T11:46:53;1.90;;;1.63;;
71759;SDS011;59919;48.112;16.280;2023-04-08T11:49:25;2.47;;;1.75;;
71759;SDS011;59919;48.112;16.280;2023-04-08T11:51:56;2.03;;;1.80;;
71759;SDS011;59919;48.112;16.280;2023-04-08T11:54:31;1.80;;;1.65;;
71759;SDS011;59919;48.112;16.280;2023-04-08T11:57:04;2.15;;;1.80;;
71759;SDS011;59919;48.112;16.280;2023-04-08T11:59:35;2.20;;;1.90;;
71759;SDS011;59919;48.112;16.280;2023-04-08T12:02:09;2.00;;;1.70;;
71759;SDS011;59919;48.112;16.280;2023-04-08T12:04:46;1.67;;;1.48;;
71759;SDS011;59919;48.112;16.280;2023-04-08T12:07:17;1.90;;;1.50;;
71759;SDS011;59919;48.112;16.280;2023-04-08T12:09:53;1.90;;;1.70;;
71759;SDS011;59919;48.112;16.280;2023-04-08T12:12:24;1.70;;;1.60;;
71759;SDS011;59919;48.112;16.280;2023-04-08T12:14:55;3.13;;;2.05;;
71759;SDS011;59919;48.112;16.280;2023-04-08T12:17:26;2.35;;;1.67;;
71759;SDS011;59919;48.112;16.280;2023-04-08T12:19:57;2.22;;;1.70;;
71759;SDS011;59919;48.112;16.280;2023-04-08T12:22:28;2.17;;;1.70;;
71759;SDS011;59919;48.112;16.280;2023-04-08T12:24:59;2.80;;;1.83;;
71759;SDS011;59919;48.112;16.280;2023-04-08T12:27:34;2.22;;;1.70;;
71759;SDS011;59919;48.112;16.280;2023-04-08T12:30:07;2.10;;;1.90;;
71759;SDS011;59919;48.112;16.280;2023-04-08T12:32:43;2.53;;;1.83;;
71759;SDS011;59919;48.112;16.280;2023-04-08T12:35:19;2.45;;;2.10;;
71759;SDS011;59919;48.112;16.280;2023-04-08T12:37:53;2.33;;;1.80;;
71759;SDS011;59919;48.112;16.280;2023-04-08T12:40:24;2.15;;;1.95;;
71759;SDS011;59919;48.112;16.280;2023-04-08T12:43:01;2.75;;;2.22;;
71759;SDS011;59919;48.112;16.280;2023-04-08T12:45:32;2.53;;;2.03;;
71759;SDS011;59919;48.112;16.280;2023-04-08T12:48:03;2.83;;;2.08;;
71759;SDS011;59919;48.112;16.280;2023-04-08T12:50:37;2.47;;;2.10;;
71759;SDS011;59919;48.112;16.280;2023-04-08T12:53:08;2.88;;;2.05;;
71759;SDS011;59919;48.112;16.280;2023-04-08T12:55:39;2.78;;;2.10;;
71759;SDS011;59919;48.112;16.280;2023-04-08T12:58:12;2.35;;;1.90;;
71759;SDS011;59919;48.112;16.280;2023-04-08T13:00:46;2.50;;;2.03;;
71759;SDS011;59919;48.112;16.280;2023-04-08T13:03:21;2.50;;;2.13;;
71759;SDS011;59919;48.112;16.280;2023-04-08T13:05:52;2.40;;;2.17;;
71759;SDS011;59919;48.112;16.280;2023-04-08T13:08:26;2.90;;;2.50;;
71759;SDS011;59919;48.112;16.280;2023-04-08T13:11:00;2.92;;;2.25;;
71759;SDS011;59919;48.112;16.280;2023-04-08T13:13:31;2.90;;;2.08;;
71759;SDS011;59919;48.112;16.280;2023-04-08T13:16:06;2.80;;;2.15;;
71759;SDS011;59919;48.112;16.280;2023-04-08T13:18:39;3.10;;;2.30;;
71759;SDS011;59919;48.112;16.280;2023-04-08T13:21:11;2.10;;;1.90;;
71759;SDS011;59919;48.112;16.280;2023-04-08T13:23:50;2.50;;;2.30;;
71759;SDS011;59919;48.112;16.280;2023-04-08T13:26:23;3.20;;;2.47;;
71759;SDS011;59919;48.112;16.280;2023-04-08T13:28:54;2.97;;;2.50;;
71759;SDS011;59919;48.112;16.280;2023-04-08T13:31:28;2.90;;;2.20;;
71759;SDS011;59919;48.112;16.280;2023-04-08T13:33:59;2.75;;;2.10;;
71759;SDS011;59919;48.112;16.280;2023-04-08T13:36:35;2.08;;;1.88;;
71759;SDS011;59919;48.112;16.280;2023-04-08T13:39:09;2.88;;;2.35;;
71759;SDS011;59919;48.112;16.280;2023-04-08T13:41:40;2.60;;;2.30;;
71759;SDS011;59919;48.112;16.280;2023-04-08T13:44:14;2.50;;;2.10;;
71759;SDS011;59919;48.112;16.280;2023-04-08T13:46:47;2.50;;;2.15;;
71759;SDS011;59919;48.112;16.280;2023-04-08T13:49:21;2.75;;;2.38;;
71759;SDS011;59919;48.112;16.280;2023-04-08T13:51:55;2.80;;;2.50;;
71759;SDS011;59919;48.112;16.280;2023-04-08T13:54:29;2.90;;;2.17;;
71759;SDS011;59919;48.112;16.280;2023-04-08T13:57:05;2.97;;;2.60;;
71759;SDS011;59919;48.112;16.280;2023-04-08T13:59:42;3.22;;;2.22;;
71759;SDS011;59919;48.112;16.280;2023-04-08T14:02:18;4.03;;;2.58;;
71759;SDS011;59919;48.112;16.280;2023-04-08T14:04:52;3.30;;;2.72;;
71759;SDS011;59919;48.112;16.280;2023-04-08T14:07:27;3.05;;;2.42;;
71759;SDS011;59919;48.112;16.280;2023-04-08T14:10:00;2.70;;;2.30;;
71759;SDS011;59919;48.112;16.280;2023-04-08T14:12:34;3.15;;;2.20;;
71759;SDS011;59919;48.112;16.280;2023-04-08T14:15:08;2.90;;;2.20;;
71759;SDS011;59919;48.112;16.280;2023-04-08T14:17:42;3.42;;;2.60;;
71759;SDS011;59919;48.112;16.280;2023-04-08T14:20:13;3.75;;;2.67;;
71759;SDS011;59919;48.112;16.280;2023-04-08T14:22:44;3.60;;;2.60;;
71759;SDS011;59919;48.112;16.280;2023-04-08T14:25:15;3.45;;;2.47;;
71759;SDS011;59919;48.112;16.280;2023-04-08T14:27:49;3.38;;;2.65;;
71759;SDS011;59919;48.112;16.280;2023-04-08T14:30:22;2.72;;;2.38;;
71759;SDS011;59919;48.112;16.280;2023-04-08T14:32:56;3.25;;;2.47;;
71759;SDS011;59919;48.112;16.280;2023-04-08T14:35:30;2.50;;;2.13;;
71759;SDS011;59919;48.112;16.280;2023-04-08T14:38:09;2.88;;;2.40;;
71759;SDS011;59919;48.112;16.280;2023-04-08T14:40:40;2.75;;;2.42;;
71759;SDS011;59919;48.112;16.280;2023-04-08T14:43:11;3.38;;;2.90;;
71759;SDS011;59919;48.112;16.280;2023-04-08T14:45:45;3.38;;;2.60;;
71759;SDS011;59919;48.112;16.280;2023-04-08T14:48:22;3.10;;;2.58;;
71759;SDS011;59919;48.112;16.280;2023-04-08T14:50:56;2.97;;;2.30;;
71759;SDS011;59919;48.112;16.280;2023-04-08T14:53:36;2.78;;;2.20;;
71759;SDS011;59919;48.112;16.280;2023-04-08T14:56:07;3.28;;;2.75;;
71759;SDS011;59919;48.112;16.280;2023-04-08T14:58:38;4.15;;;2.50;;
71759;SDS011;59919;48.112;16.280;2023-04-08T15:01:09;3.33;;;2.40;;
71759;SDS011;59919;48.112;16.280;2023-04-08T15:03:42;2.42;;;2.20;;
71759;SDS011;59919;48.112;16.280;2023-04-08T15:06:16;3.33;;;2.70;;
71759;SDS011;59919;48.112;16.280;2023-04-08T15:08:59;3.42;;;2.50;;
71759;SDS011;59919;48.112;16.280;2023-04-08T15:11:30;2.35;;;2.15;;
71759;SDS011;59919;48.112;16.280;2023-04-08T15:14:01;3.35;;;2.83;;
71759;SDS011;59919;48.112;16.280;2023-04-08T15:16:32;2.80;;;2.50;;
71759;SDS011;59919;48.112;16.280;2023-04-08T15:19:06;2.92;;;2.50;;
71759;SDS011;59919;48.112;16.280;2023-04-08T15:21:39;3.03;;;2.35;;
71759;SDS011;59919;48.112;16.280;2023-04-08T15:24:13;2.65;;;2.35;;
71759;SDS011;59919;48.112;16.280;2023-04-08T15:26:44;3.65;;;2.85;;
71759;SDS011;59919;48.112;16.280;2023-04-08T15:29:15;3.05;;;2.35;;
71759;SDS011;59919;48.112;16.280;2023-04-08T15:31:51;3.05;;;2.60;;
71759;SDS011;59919;48.112;16.280;2023-04-08T15:34:24;3.13;;;2.67;;
71759;SDS011;59919;48.112;16.280;2023-04-08T15:36:55;3.15;;;2.40;;
71759;SDS011;59919;48.112;16.280;2023-04-08T15:39:29;2.42;;;2.13;;
71759;SDS011;59919;48.112;16.280;2023-04-08T15:42:01;2.80;;;2.20;;